createdAt,value
2017-04-21T00:00:42.990Z,59.20
2017-04-21T00:01:42.220Z,59.60
2017-04-21T00:02:41.334Z,59.70
2017-04-21T00:03:41.275Z,59.90
2017-04-21T00:04:40.451Z,60.30
2017-04-21T00:05:39.623Z,60.20
2017-04-21T00:06:38.726Z,59.80
2017-04-21T00:07:37.888Z,60.00
2017-04-21T00:08:37.030Z,59.90
2017-04-21T00:09:36.174Z,59.60
2017-04-21T00:10:35.342Z,59.40
2017-04-21T00:11:34.474Z,59.50
2017-04-21T00:12:34.674Z,60.00
2017-04-21T00:13:33.825Z,59.80
2017-04-21T00:14:33.546Z,60.00
2017-04-21T00:15:32.682Z,59.90
2017-04-21T00:16:32.708Z,59.90
2017-04-21T00:17:31.859Z,59.80
2017-04-21T00:18:30.999Z,59.80
2017-04-21T00:19:30.895Z,59.70
2017-04-21T00:20:30.855Z,60.00
2017-04-21T00:21:30.001Z,59.80
2017-04-21T00:22:29.146Z,59.70
2017-04-21T00:23:28.296Z,59.90
2017-04-21T00:24:27.463Z,60.40
2017-04-21T00:25:26.570Z,60.60
2017-04-21T00:26:25.698Z,60.40
2017-04-21T00:27:24.836Z,60.30
2017-04-21T00:28:23.927Z,60.40
2017-04-21T00:29:23.055Z,60.20
2017-04-21T00:30:22.423Z,60.00
2017-04-21T00:31:21.558Z,60.70
2017-04-21T00:32:20.690Z,60.60
2017-04-21T00:33:19.796Z,61.10
2017-04-21T00:34:18.946Z,61.00
2017-04-21T00:35:18.102Z,61.50
2017-04-21T00:36:17.938Z,61.90
2017-04-21T00:37:17.102Z,62.00
2017-04-21T00:38:16.240Z,62.40
2017-04-21T00:39:15.399Z,62.00
2017-04-21T00:40:14.590Z,63.50
2017-04-21T00:41:14.577Z,63.30
2017-04-21T00:42:13.737Z,62.70
2017-04-21T00:43:12.916Z,62.60
2017-04-21T00:44:12.059Z,62.50
2017-04-21T00:45:11.212Z,62.10
2017-04-21T00:46:11.115Z,62.40
2017-04-21T00:47:10.264Z,62.90
2017-04-21T00:48:09.443Z,63.20
2017-04-21T00:49:08.542Z,63.60
2017-04-21T00:50:07.727Z,63.40
2017-04-21T00:51:06.862Z,63.30
2017-04-21T00:52:06.022Z,63.50
2017-04-21T00:53:05.135Z,63.60
2017-04-21T00:54:04.254Z,63.10
2017-04-21T00:55:03.426Z,63.00
2017-04-21T00:56:02.574Z,63.20
2017-04-21T00:57:01.711Z,63.20
2017-04-21T00:58:00.810Z,62.80
2017-04-21T00:58:59.940Z,63.30
2017-04-21T00:59:59.083Z,63.60
2017-04-21T01:00:58.270Z,63.10
2017-04-21T01:01:57.399Z,63.10
2017-04-21T01:02:56.602Z,64.10
2017-04-21T01:03:55.746Z,64.20
2017-04-21T01:04:54.874Z,64.10
2017-04-21T01:05:53.990Z,63.40
2017-04-21T01:06:53.250Z,63.40
2017-04-21T01:07:52.364Z,62.90
2017-04-21T01:08:51.470Z,62.70
2017-04-21T01:09:50.604Z,62.00
2017-04-21T01:10:49.887Z,62.50
2017-04-21T01:11:49.043Z,62.10
2017-04-21T01:12:48.159Z,62.30
2017-04-21T01:13:47.347Z,62.10
2017-04-21T01:14:46.466Z,62.70
2017-04-21T01:15:45.630Z,62.40
2017-04-21T01:16:45.047Z,62.10
2017-04-21T01:17:44.948Z,62.00
2017-04-21T01:18:44.214Z,62.00
2017-04-21T01:19:43.358Z,62.30
2017-04-21T01:20:42.562Z,63.00
2017-04-21T01:21:42.479Z,63.70
2017-04-21T01:22:41.982Z,64.50
2017-04-21T01:23:41.107Z,64.10
2017-04-21T01:24:40.263Z,63.90
2017-04-21T01:25:39.371Z,64.50
2017-04-21T01:26:38.471Z,63.90
2017-04-21T01:27:37.642Z,63.90
2017-04-21T01:28:36.795Z,64.60
2017-04-21T01:29:35.899Z,65.30
2017-04-21T01:30:35.042Z,65.50
2017-04-21T01:31:34.922Z,65.60
2017-04-21T01:32:34.094Z,65.80
2017-04-21T01:33:33.339Z,66.10
2017-04-21T01:34:32.591Z,65.40
2017-04-21T01:35:31.894Z,65.60
2017-04-21T01:36:31.016Z,65.80
2017-04-21T01:37:30.144Z,65.50
2017-04-21T01:38:29.256Z,65.40
2017-04-21T01:39:28.335Z,65.40
2017-04-21T01:40:27.474Z,65.80
2017-04-21T01:41:26.575Z,62.20
2017-04-21T01:42:25.714Z,62.90
2017-04-21T01:43:24.854Z,62.40
2017-04-21T01:44:23.970Z,61.70
2017-04-21T01:45:23.102Z,62.30
2017-04-21T01:46:22.207Z,61.10
2017-04-21T01:47:22.195Z,61.20
2017-04-21T01:49:45.319Z,61.30
2017-04-21T01:50:44.556Z,61.90
2017-04-21T01:51:43.739Z,61.30
2017-04-21T01:52:42.883Z,61.40
2017-04-21T01:53:42.067Z,60.50
2017-04-21T01:54:41.181Z,60.00
2017-04-21T01:55:40.366Z,60.40
2017-04-21T01:56:40.227Z,58.40
2017-04-21T01:57:39.362Z,58.10
2017-04-21T01:58:38.519Z,57.60
2017-04-21T01:59:37.659Z,58.00
2017-04-21T02:00:36.759Z,58.90
2017-04-21T02:01:35.867Z,58.70
2017-04-21T02:02:34.978Z,58.20
2017-04-21T02:03:34.115Z,57.20
2017-04-21T02:04:33.266Z,57.00
2017-04-21T02:05:32.395Z,57.50
2017-04-21T02:06:32.283Z,58.40
2017-04-21T02:07:31.438Z,57.90
2017-04-21T02:08:30.623Z,57.10
2017-04-21T02:09:29.714Z,56.90
2017-04-21T02:10:28.934Z,56.90
2017-04-21T02:11:28.030Z,57.10
2017-04-21T02:12:27.130Z,57.20
2017-04-21T02:13:26.263Z,57.00
2017-04-21T02:14:25.819Z,56.40
2017-04-21T02:15:24.942Z,56.30
2017-04-21T02:16:24.084Z,56.60
2017-04-21T02:17:23.260Z,57.00
2017-04-21T02:18:22.374Z,56.90
2017-04-21T02:19:21.463Z,56.50
2017-04-21T02:20:23.038Z,56.70
2017-04-21T02:21:22.190Z,56.40
2017-04-21T02:22:21.302Z,55.60
2017-04-21T02:23:20.447Z,55.50
2017-04-21T02:24:19.627Z,55.20
2017-04-21T02:25:18.882Z,54.90
2017-04-21T02:26:18.046Z,55.50
2017-04-21T02:27:17.183Z,56.20
2017-04-21T02:28:16.350Z,55.60
2017-04-21T02:29:15.476Z,56.30
2017-04-21T02:30:14.674Z,56.50
2017-04-21T02:31:13.951Z,56.20
2017-04-21T02:32:13.055Z,56.10
2017-04-21T02:33:12.991Z,54.40
2017-04-21T02:34:12.170Z,54.80
2017-04-21T02:35:11.318Z,54.90
2017-04-21T02:36:10.479Z,54.60
2017-04-21T02:37:09.598Z,54.60
2017-04-21T02:38:08.758Z,55.00
2017-04-21T02:39:07.878Z,55.60
2017-04-21T02:40:07.011Z,55.20
2017-04-21T02:41:06.134Z,55.10
2017-04-21T02:42:05.311Z,55.30
2017-04-21T02:43:04.436Z,55.10
2017-04-21T02:44:03.615Z,55.00
2017-04-21T02:45:02.720Z,55.40
2017-04-21T02:46:01.855Z,55.00
2017-04-21T02:47:01.838Z,55.70
2017-04-21T02:48:00.939Z,55.30
2017-04-21T02:49:00.110Z,55.40
2017-04-21T02:49:59.242Z,55.90
2017-04-21T02:50:58.374Z,55.90
2017-04-21T02:51:57.451Z,56.20
2017-04-21T02:52:56.610Z,55.30
2017-04-21T02:53:55.718Z,54.90
2017-04-21T02:54:54.810Z,55.20
2017-04-21T02:55:53.906Z,55.40
2017-04-21T02:56:53.054Z,54.20
2017-04-21T02:57:52.151Z,55.00
2017-04-21T02:58:51.291Z,55.10
2017-04-21T02:59:50.401Z,54.10
2017-04-21T03:00:49.518Z,54.20
2017-04-21T03:01:48.646Z,54.70
2017-04-21T03:02:47.819Z,54.10
2017-04-21T03:03:46.951Z,53.70
2017-04-21T03:04:46.083Z,52.60
2017-04-21T03:05:45.278Z,53.00
2017-04-21T03:06:44.467Z,53.10
2017-04-21T03:07:43.611Z,53.40
2017-04-21T03:08:42.729Z,53.70
2017-04-21T03:09:41.878Z,54.10
2017-04-21T03:10:41.020Z,53.70
2017-04-21T03:11:40.154Z,53.90
2017-04-21T03:12:39.268Z,52.70
2017-04-21T03:13:38.423Z,53.10
2017-04-21T03:14:37.566Z,53.00
2017-04-21T03:15:37.430Z,53.10
2017-04-21T03:16:36.587Z,53.60
2017-04-21T03:17:35.742Z,53.60
2017-04-21T03:18:34.867Z,53.40
2017-04-21T03:19:34.030Z,53.00
2017-04-21T03:20:33.170Z,53.60
2017-04-21T03:21:32.343Z,54.10
2017-04-21T03:22:31.514Z,54.10
2017-04-21T03:23:30.656Z,54.10
2017-04-21T03:24:29.810Z,53.90
2017-04-21T03:25:29.039Z,53.40
2017-04-21T03:26:28.121Z,53.80
2017-04-21T03:27:27.214Z,53.50
2017-04-21T03:28:26.318Z,53.50
2017-04-21T03:29:25.452Z,54.00
2017-04-21T03:30:24.563Z,53.90
2017-04-21T03:31:24.447Z,54.10
2017-04-21T03:32:23.558Z,54.60
2017-04-21T03:33:22.670Z,54.50
2017-04-21T03:34:21.786Z,53.90
2017-04-21T03:35:20.966Z,54.00
2017-04-21T03:36:20.071Z,53.80
2017-04-21T03:37:19.230Z,53.90
2017-04-21T03:38:18.318Z,53.80
2017-04-21T03:39:17.458Z,53.90
2017-04-21T03:40:16.606Z,53.70
2017-04-21T03:41:15.742Z,53.70
2017-04-21T03:42:21.667Z,53.70
2017-04-21T03:43:20.766Z,53.80
2017-04-21T03:44:19.886Z,54.00
2017-04-21T03:45:19.028Z,53.90
2017-04-21T03:46:18.161Z,54.20
2017-04-21T03:47:17.314Z,54.80
2017-04-21T03:48:16.483Z,55.10
2017-04-21T03:49:16.347Z,55.40
2017-04-21T03:50:15.479Z,54.70
2017-04-21T03:51:14.610Z,55.30
2017-04-21T03:52:13.795Z,54.80
2017-04-21T03:53:12.979Z,55.20
2017-04-21T03:54:12.099Z,55.70
2017-04-21T03:55:11.250Z,55.60
2017-04-21T03:56:10.391Z,55.60
2017-04-21T03:57:09.538Z,55.00
2017-04-21T03:58:08.750Z,55.40
2017-04-21T03:59:07.887Z,55.20
2017-04-21T04:00:07.773Z,55.30
2017-04-21T04:01:06.886Z,55.10
2017-04-21T04:02:06.048Z,54.70
2017-04-21T04:03:05.934Z,55.20
2017-04-21T04:04:05.091Z,55.20
2017-04-21T04:05:04.250Z,55.10
2017-04-21T04:06:03.390Z,55.00
2017-04-21T04:07:02.550Z,54.90
2017-04-21T04:08:01.699Z,55.90
2017-04-21T04:09:00.830Z,55.60
2017-04-21T04:09:59.985Z,55.90
2017-04-21T04:10:59.147Z,56.40
2017-04-21T04:11:58.286Z,56.80
2017-04-21T04:12:57.386Z,55.90
2017-04-21T04:13:56.503Z,55.60
2017-04-21T04:14:55.651Z,56.30
2017-04-21T04:15:54.758Z,56.60
2017-04-21T04:16:56.990Z,56.60
2017-04-21T04:17:56.147Z,56.90
2017-04-21T04:18:55.267Z,57.30
2017-04-21T04:19:54.406Z,56.80
2017-04-21T04:20:53.495Z,57.40
2017-04-21T04:21:52.630Z,56.40
2017-04-21T04:22:51.747Z,57.60
2017-04-21T04:23:50.895Z,57.20
2017-04-21T04:24:50.014Z,57.10
2017-04-21T04:25:49.490Z,56.50
2017-04-21T04:26:48.602Z,57.10
2017-04-21T04:27:47.766Z,57.80
2017-04-21T04:28:46.918Z,57.40
2017-04-21T04:29:46.030Z,58.00
2017-04-21T04:30:45.199Z,58.10
2017-04-21T04:31:43.587Z,58.10
2017-04-21T04:32:42.771Z,56.90
2017-04-21T04:33:41.922Z,57.10
2017-04-21T04:34:41.047Z,56.20
2017-04-21T04:35:40.184Z,54.90
2017-04-21T04:36:39.347Z,55.70
2017-04-21T04:37:38.458Z,55.30
2017-04-21T04:38:37.554Z,55.40
2017-04-21T04:39:36.655Z,55.80
2017-04-21T04:40:35.802Z,55.20
2017-04-21T04:41:34.955Z,55.40
2017-04-21T04:42:34.828Z,55.60
2017-04-21T04:43:33.947Z,55.30
2017-04-21T04:44:33.334Z,55.00
2017-04-21T04:45:32.464Z,54.90
2017-04-21T04:46:31.596Z,55.10
2017-04-21T04:47:31.039Z,55.60
2017-04-21T04:48:30.209Z,55.80
2017-04-21T04:49:29.333Z,55.20
2017-04-21T04:50:28.547Z,55.40
2017-04-21T04:51:27.648Z,55.60
2017-04-21T04:52:26.754Z,55.20
2017-04-21T04:53:25.902Z,55.00
2017-04-21T04:54:25.030Z,55.40
2017-04-21T04:55:24.150Z,55.40
2017-04-21T04:56:23.262Z,56.00
2017-04-21T04:57:22.375Z,56.00
2017-04-21T04:58:21.475Z,56.50
2017-04-21T04:59:20.639Z,56.40
2017-04-21T05:00:19.794Z,55.30
2017-04-21T05:01:18.918Z,55.20
2017-04-21T05:02:18.050Z,55.70
2017-04-21T05:03:17.145Z,56.60
2017-04-21T05:04:17.015Z,56.10
2017-04-21T05:07:40.339Z,55.50
2017-04-21T05:08:40.226Z,55.30
2017-04-21T05:09:39.434Z,56.00
2017-04-21T05:10:38.563Z,55.40
2017-04-21T05:11:37.734Z,55.50
2017-04-21T05:12:36.869Z,56.20
2017-04-21T05:13:35.971Z,56.10
2017-04-21T05:14:35.078Z,56.80
2017-04-21T05:15:34.190Z,55.70
2017-04-21T05:16:33.306Z,55.60
2017-04-21T05:17:32.438Z,55.40
2017-04-21T05:18:31.924Z,55.20
2017-04-21T05:19:31.042Z,54.60
2017-04-21T05:20:30.276Z,55.40
2017-04-21T05:21:29.410Z,55.60
2017-04-21T05:22:28.527Z,56.00
2017-04-21T05:23:27.637Z,57.60
2017-04-21T05:24:26.745Z,57.90
2017-04-21T05:25:25.846Z,57.90
2017-04-21T05:26:25.018Z,56.70
2017-04-21T05:27:24.094Z,56.40
2017-04-21T05:28:23.219Z,56.40
2017-04-21T05:29:22.342Z,57.30
2017-04-21T05:30:21.590Z,56.40
2017-04-21T05:31:20.707Z,56.00
2017-04-21T05:32:19.851Z,56.50
2017-04-21T05:33:18.973Z,56.30
2017-04-21T05:34:18.118Z,56.40
2017-04-21T05:35:17.266Z,55.60
2017-04-21T05:36:17.118Z,55.20
2017-04-21T05:37:16.295Z,55.90
2017-04-21T05:38:16.171Z,55.70
2017-04-21T05:39:15.275Z,55.80
2017-04-21T05:40:14.442Z,55.80
2017-04-21T05:41:13.575Z,55.60
2017-04-21T05:42:12.694Z,54.40
2017-04-21T05:43:11.876Z,54.60
2017-04-21T05:44:10.994Z,54.60
2017-04-21T05:45:10.103Z,54.40
2017-04-21T05:46:09.230Z,55.20
2017-04-21T05:47:08.406Z,53.60
2017-04-21T05:48:07.523Z,53.10
2017-04-21T05:49:06.646Z,53.70
2017-04-21T05:50:05.774Z,54.20
2017-04-21T05:51:04.907Z,54.70
2017-04-21T05:52:04.042Z,53.90
2017-04-21T05:53:03.243Z,54.30
2017-04-21T05:54:02.364Z,54.30
2017-04-21T05:55:01.454Z,54.30
2017-04-21T05:56:00.606Z,54.40
2017-04-21T05:56:59.718Z,53.90
2017-04-21T05:57:58.883Z,54.30
2017-04-21T05:58:58.046Z,54.70
2017-04-21T05:59:57.410Z,53.80
2017-04-21T06:00:56.577Z,54.20
2017-04-21T06:01:55.683Z,54.60
2017-04-21T06:02:54.807Z,54.10
2017-04-21T06:03:53.942Z,54.30
2017-04-21T06:04:53.137Z,54.30
2017-04-21T06:05:52.246Z,53.90
2017-04-21T06:06:51.351Z,53.90
2017-04-21T06:07:50.498Z,53.10
2017-04-21T06:08:49.616Z,53.60
2017-04-21T06:09:48.736Z,54.60
2017-04-21T06:10:48.688Z,54.60
2017-04-21T06:11:47.838Z,54.00
2017-04-21T06:12:46.931Z,54.50
2017-04-21T06:13:46.032Z,54.70
2017-04-21T06:14:45.150Z,54.80
2017-04-21T06:15:44.286Z,54.20
2017-04-21T06:16:43.466Z,53.40
2017-04-21T06:17:42.606Z,53.80
2017-04-21T06:18:41.903Z,53.20
2017-04-21T06:19:41.066Z,53.90
2017-04-21T06:20:40.271Z,53.70
2017-04-21T06:21:39.375Z,54.10
2017-04-21T06:22:38.546Z,53.50
2017-04-21T06:23:37.639Z,53.60
2017-04-21T06:24:36.772Z,53.50
2017-04-21T06:25:35.900Z,53.90
2017-04-21T06:26:34.998Z,53.30
2017-04-21T06:27:34.114Z,53.90
2017-04-21T06:28:34.070Z,53.90
2017-04-21T06:29:33.218Z,54.30
2017-04-21T06:30:32.338Z,54.60
2017-04-21T06:31:31.479Z,55.00
2017-04-21T06:32:30.619Z,53.50
2017-04-21T06:33:29.730Z,53.80
2017-04-21T06:34:28.906Z,53.60
2017-04-21T06:35:28.043Z,53.90
2017-04-21T06:36:27.186Z,53.60
2017-04-21T06:37:26.323Z,54.20
2017-04-21T06:38:25.451Z,54.20
2017-04-21T06:39:24.544Z,53.60
2017-04-21T06:40:23.715Z,53.80
2017-04-21T06:41:22.803Z,53.40
2017-04-21T06:42:21.930Z,53.00
2017-04-21T06:43:21.007Z,52.90
2017-04-21T06:44:20.112Z,53.50
2017-04-21T06:45:19.235Z,53.60
2017-04-21T06:46:18.427Z,53.50
2017-04-21T06:47:17.538Z,53.20
2017-04-21T06:48:16.659Z,53.10
2017-04-21T06:49:15.794Z,53.30
2017-04-21T06:50:14.942Z,53.50
2017-04-21T06:51:14.099Z,53.10
2017-04-21T06:52:13.287Z,53.60
2017-04-21T06:53:12.423Z,53.50
2017-04-21T06:54:11.559Z,53.80
2017-04-21T06:55:10.656Z,53.80
2017-04-21T06:56:10.506Z,53.30
2017-04-21T06:57:09.618Z,53.40
2017-04-21T06:58:08.782Z,53.20
2017-04-21T06:59:08.627Z,53.00
2017-04-21T07:00:07.739Z,53.70
2017-04-21T07:01:06.897Z,53.10
2017-04-21T07:02:06.035Z,52.90
2017-04-21T07:03:05.199Z,53.70
2017-04-21T07:04:04.406Z,53.70
2017-04-21T07:05:03.491Z,53.70
2017-04-21T07:06:02.676Z,52.80
2017-04-21T07:07:02.547Z,52.90
2017-04-21T07:08:01.699Z,52.70
2017-04-21T07:09:00.802Z,52.70
2017-04-21T07:10:00.519Z,52.10
2017-04-21T07:10:59.632Z,52.30
2017-04-21T07:11:58.796Z,52.80
2017-04-21T07:12:58.647Z,52.00
2017-04-21T07:13:57.742Z,52.20
2017-04-21T07:14:56.886Z,52.20
2017-04-21T07:15:56.046Z,51.70
2017-04-21T07:16:55.191Z,52.30
2017-04-21T07:17:54.320Z,52.80
2017-04-21T07:18:53.638Z,53.50
2017-04-21T07:19:52.755Z,52.90
2017-04-21T07:20:51.942Z,53.00
2017-04-21T07:21:51.878Z,53.20
2017-04-21T07:22:50.963Z,52.20
2017-04-21T07:23:50.067Z,52.90
2017-04-21T07:24:49.231Z,51.30
2017-04-21T07:25:48.378Z,51.50
2017-04-21T07:26:47.482Z,52.20
2017-04-21T07:27:46.728Z,52.30
2017-04-21T07:28:45.875Z,52.60
2017-04-21T07:29:44.982Z,52.80
2017-04-21T07:30:44.859Z,51.80
2017-04-21T07:31:44.003Z,52.20
2017-04-21T07:32:43.199Z,52.20
2017-04-21T07:33:42.383Z,52.50
2017-04-21T07:34:41.522Z,52.10
2017-04-21T07:36:39.833Z,50.80
2017-04-21T07:37:38.944Z,51.10
2017-04-21T07:40:36.720Z,51.00
2017-04-21T07:41:35.826Z,51.10
2017-04-21T07:42:34.915Z,51.30
2017-04-21T07:43:34.819Z,50.90
2017-04-21T07:44:34.040Z,50.30
2017-04-21T07:45:33.246Z,50.60
2017-04-21T07:46:32.382Z,51.20
2017-04-21T07:47:31.503Z,50.00
2017-04-21T07:48:30.630Z,50.60
2017-04-21T07:49:29.771Z,50.70
2017-04-21T07:50:28.900Z,50.20
2017-04-21T07:51:28.046Z,49.90
2017-04-21T07:52:27.178Z,50.60
2017-04-21T07:53:26.311Z,51.40
2017-04-21T07:54:25.447Z,51.30
2017-04-21T07:55:24.582Z,50.10
2017-04-21T07:56:23.706Z,49.90
2017-04-21T07:57:23.639Z,49.90
2017-04-21T07:58:22.755Z,49.70
2017-04-21T07:59:21.863Z,49.80
2017-04-21T08:01:21.623Z,50.60
2017-04-21T08:02:20.759Z,50.40
2017-04-21T08:03:19.927Z,49.90
2017-04-21T08:04:19.049Z,51.00
2017-04-21T08:05:18.159Z,50.30
2017-04-21T08:06:17.287Z,49.70
2017-04-21T08:07:16.520Z,49.40
2017-04-21T08:08:15.674Z,49.40
2017-04-21T08:09:14.854Z,49.30
2017-04-21T08:10:13.979Z,49.80
2017-04-21T08:11:13.146Z,50.80
2017-04-21T08:12:12.339Z,48.60
2017-04-21T08:13:12.322Z,48.80
2017-04-21T08:14:11.494Z,49.10
2017-04-21T08:15:10.702Z,49.30
2017-04-21T08:16:09.862Z,48.40
2017-04-21T08:17:09.017Z,48.60
2017-04-21T08:18:08.122Z,49.20
2017-04-21T08:19:07.302Z,49.60
2017-04-21T08:20:06.426Z,48.80
2017-04-21T08:21:05.610Z,48.90
2017-04-21T08:22:04.803Z,48.40
2017-04-21T08:23:03.975Z,48.50
2017-04-21T08:24:03.208Z,48.20
2017-04-21T08:25:02.346Z,48.20
2017-04-21T08:26:01.491Z,48.60
2017-04-21T08:27:00.646Z,49.10
2017-04-21T08:27:59.747Z,49.50
2017-04-21T08:28:58.878Z,48.50
2017-04-21T08:29:57.986Z,48.80
2017-04-21T08:30:57.115Z,49.20
2017-04-21T08:31:56.245Z,49.60
2017-04-21T08:32:55.406Z,49.40
2017-04-21T08:33:54.546Z,48.50
2017-04-21T08:34:54.370Z,48.90
2017-04-21T08:35:53.478Z,48.60
2017-04-21T08:36:52.638Z,48.60
2017-04-21T08:37:51.760Z,48.70
2017-04-21T08:38:50.966Z,48.00
2017-04-21T08:39:50.079Z,48.40
2017-04-21T08:40:49.182Z,48.50
2017-04-21T08:41:48.287Z,49.30
2017-04-21T08:42:47.411Z,48.10
2017-04-21T08:43:46.522Z,47.80
2017-04-21T08:44:45.714Z,48.30
2017-04-21T08:45:44.891Z,48.70
2017-04-21T08:46:44.038Z,48.30
2017-04-21T08:47:43.199Z,47.90
2017-04-21T08:48:42.383Z,46.90
2017-04-21T08:49:41.566Z,47.50
2017-04-21T08:51:40.588Z,48.60
2017-04-21T08:52:39.730Z,47.90
2017-04-21T08:53:38.830Z,47.60
2017-04-21T08:54:37.958Z,47.00
2017-04-21T08:55:37.098Z,47.40
2017-04-21T08:56:36.294Z,47.70
2017-04-21T08:57:35.431Z,48.00
2017-04-21T08:58:34.566Z,48.60
2017-04-21T08:59:33.666Z,48.70
2017-04-21T09:00:33.526Z,49.40
2017-04-21T09:01:33.029Z,48.70
2017-04-21T09:02:32.254Z,49.10
2017-04-21T09:03:31.411Z,48.50
2017-04-21T09:04:30.551Z,48.30
2017-04-21T09:05:29.652Z,49.30
2017-04-21T09:06:28.764Z,49.40
2017-04-21T09:07:28.742Z,49.10
2017-04-21T09:08:28.780Z,50.30
2017-04-21T09:09:27.895Z,49.80
2017-04-21T09:10:27.039Z,50.00
2017-04-21T09:11:26.165Z,48.30
2017-04-21T09:12:25.619Z,48.20
2017-04-21T09:13:24.718Z,48.30
2017-04-21T09:14:23.906Z,48.50
2017-04-21T09:15:23.014Z,48.40
2017-04-21T09:16:22.138Z,48.50
2017-04-21T09:17:21.238Z,48.10
2017-04-21T09:18:20.414Z,48.10
2017-04-21T09:19:19.691Z,47.30
2017-04-21T09:20:19.204Z,47.90
2017-04-21T09:21:18.314Z,48.30
2017-04-21T09:22:17.467Z,47.90
2017-04-21T09:23:16.603Z,47.80
2017-04-21T09:24:15.727Z,46.70
2017-04-21T09:25:14.874Z,47.30
2017-04-21T09:26:14.152Z,46.90
2017-04-21T09:27:13.298Z,46.70
2017-04-21T09:28:12.447Z,46.70
2017-04-21T09:29:11.615Z,46.20
2017-04-21T09:30:10.788Z,46.50
2017-04-21T09:31:09.902Z,47.10
2017-04-21T09:32:09.083Z,47.60
2017-04-21T09:34:33.643Z,46.20
2017-04-21T09:35:13.081Z,44.50
2017-04-21T09:36:17.892Z,45.30
2017-04-21T09:37:12.311Z,45.80
2017-04-21T09:38:11.754Z,44.80
2017-04-21T09:39:10.867Z,44.80
2017-04-21T09:40:10.012Z,44.80
2017-04-21T09:41:09.123Z,44.00
2017-04-21T09:42:08.271Z,44.50
2017-04-21T09:43:20.906Z,44.60
2017-04-21T09:44:06.579Z,43.60
2017-04-21T09:45:05.758Z,43.20
2017-04-21T09:46:04.966Z,43.40
2017-04-21T09:47:04.096Z,43.60
2017-04-21T09:48:03.222Z,43.70
2017-04-21T09:49:02.406Z,43.40
2017-04-21T09:50:01.535Z,44.00
2017-04-21T09:51:00.623Z,44.10
2017-04-21T09:52:37.149Z,45.20
2017-04-21T09:57:18.808Z,45.10
2017-04-21T09:57:33.618Z,45.40
2017-04-21T09:58:09.099Z,43.90
2017-04-21T09:58:30.466Z,44.90
2017-04-21T09:59:26.132Z,43.90
2017-04-21T10:00:04.612Z,44.40
2017-04-21T10:01:22.472Z,44.20
2017-04-21T10:02:28.201Z,45.00
2017-04-21T10:05:50.607Z,45.90
2017-04-21T10:06:12.463Z,44.80
2017-04-21T10:06:18.227Z,45.40
2017-04-21T10:06:19.762Z,45.30
2017-04-21T10:06:55.134Z,45.70
2017-04-21T10:08:11.831Z,45.10
2017-04-21T10:08:22.021Z,46.40
2017-04-21T10:08:33.028Z,46.10
2017-04-21T10:08:48.771Z,45.80
2017-04-21T10:09:47.927Z,46.70
2017-04-21T10:10:47.048Z,46.30
2017-04-21T10:11:46.258Z,46.10
2017-04-21T10:12:45.487Z,47.00
2017-04-21T10:13:44.587Z,45.70
2017-04-21T10:14:43.726Z,47.30
2017-04-21T10:15:42.931Z,47.80
2017-04-21T10:16:43.682Z,48.00
2017-04-21T10:17:42.830Z,46.60
2017-04-21T10:18:42.150Z,46.60
2017-04-21T10:19:41.378Z,46.10
2017-04-21T10:20:40.519Z,46.10
2017-04-21T10:21:39.626Z,46.40
2017-04-21T10:22:38.726Z,47.10
2017-04-21T10:23:37.834Z,46.40
2017-04-21T10:24:36.982Z,46.50
2017-04-21T10:25:36.090Z,47.20
2017-04-21T10:26:35.198Z,48.90
2017-04-21T10:27:34.342Z,48.00
2017-04-21T10:28:33.542Z,47.00
2017-04-21T10:29:32.764Z,46.80
2017-04-21T10:30:31.962Z,46.70
2017-04-21T10:31:31.066Z,46.30
2017-04-21T10:32:30.943Z,46.90
2017-04-21T10:33:30.074Z,46.10
2017-04-21T10:34:29.194Z,46.00
2017-04-21T10:35:28.286Z,45.70
2017-04-21T10:36:27.503Z,46.20
2017-04-21T10:37:26.615Z,46.30
2017-04-21T10:38:25.755Z,46.20
2017-04-21T10:39:24.856Z,45.50
2017-04-21T10:40:24.035Z,45.50
2017-04-21T10:41:23.163Z,46.90
2017-04-21T10:42:22.298Z,46.40
2017-04-21T10:43:21.410Z,46.20
2017-04-21T10:44:20.525Z,46.30
2017-04-21T10:45:19.648Z,47.30
2017-04-21T10:46:18.834Z,47.00
2017-04-21T10:47:17.938Z,46.90
2017-04-21T10:48:17.111Z,47.60
2017-04-21T10:49:16.663Z,48.50
2017-04-21T10:50:15.810Z,47.20
2017-04-21T10:51:14.157Z,47.20
2017-04-21T10:52:13.302Z,48.20
2017-04-21T10:53:12.467Z,47.60
2017-04-21T10:54:11.756Z,46.40
2017-04-21T10:55:10.877Z,46.80
2017-04-21T10:56:10.768Z,46.90
2017-04-21T10:57:09.866Z,47.30
2017-04-21T10:58:08.974Z,47.40
2017-04-21T10:59:08.171Z,46.50
2017-04-21T11:00:07.402Z,47.20
2017-04-21T11:01:06.522Z,47.30
2017-04-21T11:02:05.635Z,47.50
2017-04-21T11:03:04.751Z,48.00
2017-04-21T11:04:03.920Z,47.60
2017-04-21T11:05:03.047Z,47.70
2017-04-21T11:06:02.263Z,47.00
2017-04-21T11:07:01.414Z,47.80
2017-04-21T11:08:00.527Z,48.00
2017-04-21T11:09:00.647Z,48.80
2017-04-21T11:09:59.790Z,48.30
2017-04-21T11:10:58.957Z,49.00
2017-04-21T11:11:58.146Z,48.50
2017-04-21T11:12:57.263Z,48.30
2017-04-21T11:13:56.368Z,48.00
2017-04-21T11:14:55.778Z,47.90
2017-04-21T11:15:54.902Z,48.80
2017-04-21T11:16:54.058Z,47.60
2017-04-21T11:17:53.183Z,48.60
2017-04-21T11:18:52.300Z,48.50
2017-04-21T11:19:52.171Z,47.80
2017-04-21T11:20:51.315Z,47.40
2017-04-21T11:21:50.490Z,47.80
2017-04-21T11:22:49.662Z,47.80
2017-04-21T11:23:48.874Z,48.10
2017-04-21T11:24:48.109Z,48.30
2017-04-21T11:25:47.234Z,49.00
2017-04-21T11:26:47.122Z,49.60
2017-04-21T11:27:46.364Z,49.00
2017-04-21T11:28:45.550Z,49.40
2017-04-21T11:29:44.738Z,48.30
2017-04-21T11:30:43.911Z,47.00
2017-04-21T11:31:43.028Z,48.00
2017-04-21T11:32:42.266Z,47.20
2017-04-21T11:33:41.408Z,48.50
2017-04-21T11:34:40.556Z,47.90
2017-04-21T11:35:39.742Z,47.50
2017-04-21T11:36:38.826Z,49.00
2017-04-21T11:37:37.951Z,49.00
2017-04-21T11:38:37.102Z,49.10
2017-04-21T11:39:36.226Z,48.70
2017-04-21T11:40:35.426Z,48.80
2017-04-21T11:41:34.582Z,49.00
2017-04-21T11:42:33.750Z,48.80
2017-04-21T11:43:32.927Z,48.40
2017-04-21T11:45:32.258Z,48.50
2017-04-21T11:46:31.370Z,47.90
2017-04-21T11:47:30.530Z,47.40
2017-04-21T11:48:29.635Z,48.10
2017-04-21T11:49:28.758Z,46.90
2017-04-21T11:50:27.897Z,47.40
2017-04-21T11:51:27.018Z,48.20
2017-04-21T11:52:26.866Z,47.90
2017-04-21T11:53:26.019Z,49.20
2017-04-21T11:54:25.147Z,48.50
2017-04-21T11:55:24.282Z,47.70
2017-04-21T11:56:23.385Z,47.20
2017-04-21T11:57:22.498Z,47.80
2017-04-21T11:58:21.594Z,47.70
2017-04-21T11:59:21.513Z,46.20
2017-04-21T12:00:20.651Z,47.20
2017-04-21T12:01:19.799Z,47.10
2017-04-21T12:02:18.914Z,47.20
2017-04-21T12:03:18.066Z,46.80
2017-04-21T12:04:17.205Z,45.70
2017-04-21T12:05:16.412Z,47.10
2017-04-21T12:06:15.592Z,47.90
2017-04-21T12:07:14.758Z,48.80
2017-04-21T12:08:14.002Z,46.90
2017-04-21T12:09:13.155Z,47.90
2017-04-21T12:10:12.662Z,45.00
2017-04-21T12:11:11.898Z,45.10
2017-04-21T12:12:11.043Z,45.40
2017-04-21T12:13:10.134Z,46.00
2017-04-21T12:14:09.251Z,44.90
2017-04-21T12:15:08.367Z,45.00
2017-04-21T12:16:07.516Z,44.50
2017-04-21T12:17:06.666Z,45.50
2017-04-21T12:18:05.812Z,44.70
2017-04-21T12:19:04.895Z,45.50
2017-04-21T12:20:04.223Z,44.60
2017-04-21T12:21:03.354Z,45.20
2017-04-21T12:22:02.506Z,45.20
2017-04-21T12:23:01.686Z,45.30
2017-04-21T12:24:00.778Z,44.60
2017-04-21T12:24:59.922Z,43.10
2017-04-21T12:25:59.068Z,43.40
2017-04-21T12:26:58.190Z,43.30
2017-04-21T12:27:57.995Z,45.30
2017-04-21T12:28:57.131Z,45.20
2017-04-21T12:29:56.618Z,44.10
2017-04-21T12:30:55.774Z,43.20
2017-04-21T12:31:54.882Z,42.50
2017-04-21T12:32:53.994Z,42.30
2017-04-21T12:33:53.123Z,43.30
2017-04-21T12:34:52.299Z,43.70
2017-04-21T12:35:52.154Z,45.30
2017-04-21T12:36:51.274Z,44.60
2017-04-21T12:37:50.483Z,42.90
2017-04-21T12:38:49.633Z,43.20
2017-04-21T12:39:48.777Z,45.60
2017-04-21T12:40:47.970Z,45.00
2017-04-21T12:41:47.143Z,44.50
2017-04-21T12:42:46.278Z,44.10
2017-04-21T12:43:45.422Z,44.80
2017-04-21T12:44:44.556Z,45.30
2017-04-21T12:45:43.798Z,44.40
2017-04-21T12:46:43.030Z,45.30
2017-04-21T12:47:42.135Z,44.80
2017-04-21T12:48:41.255Z,46.20
2017-04-21T12:49:40.358Z,45.10
2017-04-21T12:50:39.463Z,45.40
2017-04-21T12:51:38.638Z,44.70
2017-04-21T12:52:37.842Z,44.20
2017-04-21T12:53:36.975Z,44.80